Time;durP1;ratioP1;P1;durP2;ratioP2;P2;SDS_P1;SDS_P2;PMS_P1;PMS_P2;Temp;Humidity;BMP_temperature;BMP_pressure;BME280_temperature;BME280_humidity;BME280_pressure;Samples;Min_cycle;Max_cycle;Signal;HPM_P1;HPM_P2
2022/07/31 00:00:38;;;;;;;5.97;3.13;;;18.90;99.90;;;;;;5042218;28;20553;-71
2022/07/31 00:03:04;;;;;;;3.97;2.55;;;18.90;99.90;;;;;;5004355;28;20043;-71
2022/07/31 00:05:30;;;;;;;7.07;2.80;;;18.90;99.90;;;;;;4990336;28;20130;-71
2022/07/31 00:07:56;;;;;;;4.53;3.00;;;18.90;99.90;;;;;;5023844;28;20269;-71
2022/07/31 00:10:22;;;;;;;5.80;2.58;;;19.00;99.90;;;;;;5056726;28;20048;-71
2022/07/31 00:12:48;;;;;;;3.53;2.85;;;18.90;99.90;;;;;;5038652;28;20041;-71
2022/07/31 00:15:13;;;;;;;4.07;2.70;;;18.90;99.90;;;;;;5027072;28;20114;-71
2022/07/31 00:17:41;;;;;;;6.72;2.88;;;18.90;99.90;;;;;;5033164;28;20045;-71
2022/07/31 00:20:08;;;;;;;5.80;2.97;;;18.90;99.90;;;;;;5042038;28;20040;-71
2022/07/31 00:22:34;;;;;;;7.70;2.80;;;18.90;99.90;;;;;;5040835;28;20107;-71
2022/07/31 00:25:00;;;;;;;4.20;3.10;;;18.90;99.90;;;;;;5064049;28;20051;-71
2022/07/31 00:27:26;;;;;;;3.38;2.50;;;18.90;99.90;;;;;;5024454;28;20041;-71
2022/07/31 00:29:51;;;;;;;4.93;2.72;;;18.90;99.90;;;;;;5043623;28;20397;-71
2022/07/31 00:32:17;;;;;;;8.15;2.85;;;18.90;99.90;;;;;;5044593;28;20067;-71
2022/07/31 00:34:43;;;;;;;5.28;3.20;;;18.90;99.90;;;;;;5042962;28;20032;-71
2022/07/31 00:37:09;;;;;;;8.43;3.58;;;18.90;99.90;;;;;;5039663;28;20111;-71
2022/07/31 00:39:35;;;;;;;4.28;3.40;;;18.80;99.90;;;;;;5041182;28;20036;-71
2022/07/31 00:42:01;;;;;;;4.70;2.63;;;18.80;99.90;;;;;;5032167;28;20469;-71
2022/07/31 00:44:27;;;;;;;3.88;2.80;;;18.70;99.90;;;;;;5040243;28;20049;-71
2022/07/31 00:46:53;;;;;;;5.85;3.42;;;18.80;99.90;;;;;;5014675;28;20421;-71
2022/07/31 00:49:19;;;;;;;6.05;2.85;;;18.70;99.90;;;;;;5024658;28;20036;-71
2022/07/31 00:51:45;;;;;;;3.47;2.80;;;18.70;99.90;;;;;;5024553;28;20390;-71
2022/07/31 00:54:11;;;;;;;5.03;3.10;;;18.60;99.90;;;;;;5039141;28;20037;-71
2022/07/31 00:56:37;;;;;;;4.30;2.80;;;18.70;99.90;;;;;;5008787;28;21228;-71
2022/07/31 00:59:04;;;;;;;7.07;2.90;;;18.60;99.90;;;;;;5020486;28;20036;-71
2022/07/31 01:01:29;;;;;;;5.53;2.90;;;18.60;99.90;;;;;;5039967;28;20473;-71
2022/07/31 01:03:56;;;;;;;6.47;2.58;;;18.60;99.90;;;;;;5024285;28;20115;-71
2022/07/31 01:06:21;;;;;;;5.10;3.17;;;18.60;99.90;;;;;;5056173;28;20047;-71
2022/07/31 01:08:47;;;;;;;5.78;2.80;;;18.60;99.90;;;;;;5037822;28;20029;-71
2022/07/31 01:11:32;;;;;;;4.70;2.63;;;18.60;99.90;;;;;;5045586;28;20097;-71
2022/07/31 01:14:01;;;;;;;7.07;2.83;;;18.60;99.90;;;;;;5036320;28;20082;-71
2022/07/31 01:16:31;;;;;;;4.18;2.67;;;18.50;99.90;;;;;;5045780;28;20040;-71
2022/07/31 01:18:58;;;;;;;7.82;2.70;;;18.50;99.90;;;;;;5036963;28;20060;-71
2022/07/31 01:21:47;;;;;;;6.03;2.97;;;18.50;99.90;;;;;;5022579;28;20048;-71
2022/07/31 01:25:00;;;;;;;2.75;2.28;;;18.40;99.90;;;;;;5018541;28;20053;-71
2022/07/31 01:27:43;;;;;;;;;;;18.40;99.90;;;;;;4998615;28;20056;-71
2022/07/31 01:30:10;;;;;;;5.70;2.40;;;18.30;99.90;;;;;;5028897;28;19944;-71
2022/07/31 01:32:39;;;;;;;3.50;2.65;;;18.20;99.90;;;;;;5029509;28;20123;-71
2022/07/31 01:35:20;;;;;;;5.05;3.35;;;18.20;99.90;;;;;;5037814;28;20028;-71
2022/07/31 01:37:53;;;;;;;5.55;2.83;;;18.10;99.90;;;;;;5052658;28;20040;-71
2022/07/31 01:40:27;;;;;;;7.00;2.40;;;18.00;99.90;;;;;;5042666;28;20071;-71
2022/07/31 01:43:10;;;;;;;4.07;3.00;;;18.00;99.90;;;;;;5042948;28;20037;-71
2022/07/31 01:45:39;;;;;;;5.10;3.00;;;17.90;99.90;;;;;;5037743;28;20050;-71
2022/07/31 01:48:09;;;;;;;5.18;3.10;;;17.80;99.90;;;;;;5026719;28;20045;-71
2022/07/31 01:50:37;;;;;;;3.70;3.03;;;17.70;99.90;;;;;;5016320;28;20037;-71
2022/07/31 01:53:05;;;;;;;4.80;3.53;;;17.70;99.90;;;;;;5037221;28;20029;-71
2022/07/31 01:55:32;;;;;;;4.50;3.40;;;17.60;99.90;;;;;;5038242;28;20044;-71
2022/07/31 01:57:58;;;;;;;6.38;3.25;;;17.60;99.90;;;;;;5018501;28;20493;-71
2022/07/31 02:00:24;;;;;;;5.20;3.28;;;17.50;99.90;;;;;;5025600;28;20489;-70
2022/07/31 02:02:51;;;;;;;6.90;3.10;;;17.50;99.90;;;;;;5044928;28;20039;-71
2022/07/31 02:05:19;;;;;;;4.10;3.00;;;17.40;99.90;;;;;;5027779;28;20101;-71
2022/07/31 02:07:45;;;;;;;6.28;3.10;;;17.40;99.90;;;;;;5022512;28;20032;-71
2022/07/31 02:10:15;;;;;;;6.20;3.35;;;17.30;99.90;;;;;;5055199;28;20056;-71
2022/07/31 02:12:42;;;;;;;4.28;3.30;;;17.30;99.90;;;;;;5039225;28;20072;-71
2022/07/31 02:15:11;;;;;;;6.22;3.40;;;17.20;99.90;;;;;;5058153;28;20072;-71
2022/07/31 02:17:37;;;;;;;6.32;3.10;;;17.20;99.90;;;;;;5027899;28;20041;-71
2022/07/31 02:20:06;;;;;;;5.60;3.53;;;17.20;99.90;;;;;;5022239;28;20043;-70
2022/07/31 02:22:33;;;;;;;6.03;3.63;;;17.20;99.90;;;;;;5037398;28;20052;-70
2022/07/31 02:24:59;;;;;;;6.05;3.20;;;17.20;99.90;;;;;;5037684;28;20045;-71
2022/07/31 02:27:27;;;;;;;8.43;3.42;;;17.20;99.90;;;;;;5019671;28;20057;-71
2022/07/31 02:29:54;;;;;;;7.28;3.30;;;17.10;99.90;;;;;;5021004;28;20050;-71
2022/07/31 02:32:21;;;;;;;5.85;3.53;;;17.10;99.90;;;;;;5024509;28;20095;-70
2022/07/31 02:34:47;;;;;;;5.90;3.15;;;17.10;99.90;;;;;;5010392;28;20091;-70
2022/07/31 02:37:14;;;;;;;4.30;3.13;;;17.10;99.90;;;;;;5021952;28;20578;-70
2022/07/31 02:39:41;;;;;;;7.28;3.58;;;17.10;99.90;;;;;;5022764;28;20111;-71
2022/07/31 02:42:08;;;;;;;7.55;3.30;;;17.20;99.90;;;;;;5039191;28;20036;-71
2022/07/31 02:44:36;;;;;;;4.38;3.13;;;17.20;99.90;;;;;;5040837;28;20061;-71
2022/07/31 02:47:04;;;;;;;5.53;3.50;;;17.20;99.90;;;;;;5052659;28;20101;-70
2022/07/31 02:49:30;;;;;;;4.20;3.20;;;17.30;99.90;;;;;;5039906;28;20479;-71
2022/07/31 02:51:56;;;;;;;9.27;3.80;;;17.30;99.90;;;;;;5041710;28;20052;-71
2022/07/31 02:54:26;;;;;;;5.93;3.35;;;17.30;99.90;;;;;;5034538;28;20094;-71
2022/07/31 02:56:52;;;;;;;6.53;3.85;;;17.30;99.90;;;;;;5000281;28;20494;-71
2022/07/31 02:59:18;;;;;;;5.47;3.72;;;17.30;99.90;;;;;;5023932;28;20040;-70
2022/07/31 03:01:44;;;;;;;5.85;3.33;;;17.40;99.90;;;;;;5037646;28;20499;-71
2022/07/31 03:04:10;;;;;;;3.85;3.10;;;17.40;99.90;;;;;;5022814;28;20039;-71
2022/07/31 03:06:35;;;;;;;5.15;3.42;;;17.40;99.90;;;;;;5040996;28;20043;-71
2022/07/31 03:09:01;;;;;;;6.03;3.60;;;17.40;99.90;;;;;;5038819;28;20059;-71
2022/07/31 03:11:27;;;;;;;4.72;3.20;;;17.40;99.90;;;;;;5057345;28;20049;-70
2022/07/31 03:13:57;;;;;;;5.80;3.15;;;17.40;99.90;;;;;;5058896;28;20032;-71
2022/07/31 03:16:24;;;;;;;7.90;3.28;;;17.50;99.90;;;;;;5020301;28;20045;-71
2022/07/31 03:18:51;;;;;;;8.45;3.47;;;17.50;99.90;;;;;;5036770;28;20378;-71
2022/07/31 03:21:18;;;;;;;6.30;3.85;;;17.50;99.90;;;;;;5041251;28;20032;-71
2022/07/31 03:23:45;;;;;;;5.63;3.42;;;17.50;99.90;;;;;;5041412;28;20095;-71
2022/07/31 03:26:11;;;;;;;4.72;3.60;;;17.50;99.90;;;;;;5020424;28;20029;-71
2022/07/31 03:28:36;;;;;;;4.57;3.45;;;17.60;99.90;;;;;;5025034;28;20040;-71
2022/07/31 03:31:03;;;;;;;5.70;4.05;;;17.60;99.90;;;;;;5021867;28;20590;-71
2022/07/31 03:33:29;;;;;;;6.97;4.00;;;17.60;99.90;;;;;;5013720;28;20049;-71
2022/07/31 03:35:55;;;;;;;4.72;3.53;;;17.60;99.90;;;;;;5017717;28;20094;-71
2022/07/31 03:38:20;;;;;;;6.00;3.78;;;17.60;99.90;;;;;;5041850;28;20040;-71
2022/07/31 03:40:47;;;;;;;4.32;3.67;;;17.70;99.90;;;;;;5023650;28;20045;-71
2022/07/31 03:43:15;;;;;;;7.18;4.03;;;17.60;99.90;;;;;;5042171;28;20147;-71
2022/07/31 03:45:42;;;;;;;6.55;4.05;;;17.60;99.90;;;;;;5029883;28;20549;-71
2022/07/31 03:48:08;;;;;;;6.60;3.92;;;17.70;99.90;;;;;;5038989;28;20128;-71
2022/07/31 03:50:39;;;;;;;6.50;3.67;;;17.60;99.90;;;;;;5005846;28;20199;-71
2022/07/31 03:53:05;;;;;;;6.93;3.95;;;17.60;99.90;;;;;;5041487;28;20044;-71
2022/07/31 03:55:34;;;;;;;7.00;3.78;;;17.60;99.90;;;;;;5017077;28;20033;-70
2022/07/31 03:58:02;;;;;;;6.30;3.97;;;17.60;99.90;;;;;;5034467;28;20223;-70
2022/07/31 04:00:28;;;;;;;7.35;3.63;;;17.60;99.90;;;;;;5055506;28;20136;-70
2022/07/31 04:02:55;;;;;;;7.88;3.78;;;17.60;99.90;;;;;;5028241;28;20037;-71
2022/07/31 04:05:22;;;;;;;4.65;3.75;;;17.60;99.90;;;;;;5020202;28;20085;-71
2022/07/31 04:07:49;;;;;;;9.18;4.53;;;17.60;99.90;;;;;;5061037;28;20041;-71
2022/07/31 04:10:14;;;;;;;7.03;4.18;;;17.60;99.90;;;;;;5023902;28;20056;-71
2022/07/31 04:12:40;;;;;;;7.25;4.80;;;17.60;99.90;;;;;;5036189;28;20038;-70
2022/07/31 04:15:06;;;;;;;11.45;4.38;;;17.60;99.90;;;;;;5016653;28;20134;-71
2022/07/31 04:17:32;;;;;;;7.22;3.80;;;17.60;99.90;;;;;;5037253;28;20040;-71
2022/07/31 04:19:58;;;;;;;6.28;4.05;;;17.60;99.90;;;;;;5012767;28;20037;-71
2022/07/31 04:22:23;;;;;;;6.25;3.85;;;17.60;99.90;;;;;;5031839;28;20040;-71
2022/07/31 04:24:49;;;;;;;7.07;4.05;;;17.60;99.90;;;;;;5028812;28;20506;-70
2022/07/31 04:27:16;;;;;;;5.88;4.55;;;17.60;99.90;;;;;;5030094;28;20053;-71
2022/07/31 04:29:43;;;;;;;6.60;3.85;;;17.60;99.90;;;;;;5045749;28;20037;-71
2022/07/31 04:32:09;;;;;;;8.30;4.72;;;17.60;99.90;;;;;;5058503;28;20120;-71
2022/07/31 04:34:35;;;;;;;6.05;4.43;;;17.80;99.90;;;;;;5020637;28;20042;-70
2022/07/31 04:37:00;;;;;;;9.38;4.40;;;17.70;99.90;;;;;;5026129;28;20041;-70
2022/07/31 04:39:26;;;;;;;7.78;4.15;;;17.70;99.90;;;;;;5025833;28;20131;-71
2022/07/31 04:41:52;;;;;;;6.43;4.22;;;17.70;99.90;;;;;;5022603;28;20099;-71
2022/07/31 04:44:18;;;;;;;6.00;4.30;;;17.80;99.90;;;;;;5042610;28;20056;-71
2022/07/31 04:46:44;;;;;;;6.90;4.50;;;17.80;99.90;;;;;;5009102;28;20532;-71
2022/07/31 04:49:13;;;;;;;19.13;5.18;;;17.80;99.90;;;;;;5015271;28;20401;-71
2022/07/31 04:51:41;;;;;;;8.05;4.55;;;17.90;99.90;;;;;;5039912;28;20048;-71
2022/07/31 04:54:07;;;;;;;10.07;4.85;;;17.90;99.90;;;;;;5040683;28;20075;-71
2022/07/31 04:56:40;;;;;;;8.80;4.15;;;17.90;99.90;;;;;;5011252;28;20363;-71
2022/07/31 04:59:11;;;;;;;7.55;4.15;;;17.90;99.90;;;;;;5023715;28;20071;-71
2022/07/31 05:01:38;;;;;;;5.43;4.28;;;18.00;99.90;;;;;;5025347;28;20047;-71
2022/07/31 05:04:04;;;;;;;6.63;4.38;;;18.00;99.90;;;;;;5035595;28;20432;-71
2022/07/31 05:06:34;;;;;;;5.97;3.92;;;18.00;99.90;;;;;;5041046;28;20119;-71
2022/07/31 05:09:01;;;;;;;5.10;3.97;;;18.00;99.90;;;;;;5058937;28;20087;-71
2022/07/31 05:11:26;;;;;;;7.88;4.10;;;18.00;99.90;;;;;;5043377;28;20072;-71
2022/07/31 05:13:55;;;;;;;5.10;4.30;;;18.00;99.90;;;;;;5026095;28;20750;-71
2022/07/31 05:16:21;;;;;;;5.80;3.97;;;18.00;99.90;;;;;;5021449;28;20033;-71
2022/07/31 05:18:48;;;;;;;6.05;3.80;;;18.00;99.90;;;;;;5044021;28;20037;-71
2022/07/31 05:21:15;;;;;;;5.57;3.72;;;18.00;99.90;;;;;;5013550;28;20163;-71
2022/07/31 05:23:42;;;;;;;4.90;3.83;;;18.00;99.90;;;;;;5037793;28;20067;-71
2022/07/31 05:26:09;;;;;;;6.95;4.63;;;18.10;99.90;;;;;;5045577;28;20043;-71
2022/07/31 05:28:36;;;;;;;5.85;4.20;;;18.10;99.90;;;;;;5040880;28;20128;-71
2022/07/31 05:31:02;;;;;;;7.97;4.10;;;18.20;99.90;;;;;;5057255;28;20072;-72
2022/07/31 05:33:28;;;;;;;4.65;3.80;;;18.20;99.90;;;;;;5057988;28;20036;-71
2022/07/31 05:35:54;;;;;;;5.53;4.25;;;18.20;99.90;;;;;;5027898;28;20028;-71
2022/07/31 05:38:20;;;;;;;6.82;4.10;;;18.20;99.90;;;;;;5023116;28;20448;-71
2022/07/31 05:40:46;;;;;;;10.35;3.95;;;18.30;99.90;;;;;;5045382;28;20049;-71
2022/07/31 05:43:12;;;;;;;8.60;3.80;;;18.30;99.90;;;;;;5039134;28;20047;-71
2022/07/31 05:45:38;;;;;;;5.57;3.95;;;18.30;99.90;;;;;;5042973;28;20066;-71
2022/07/31 05:48:04;;;;;;;7.68;4.28;;;18.30;99.90;;;;;;5043868;28;20131;-71
2022/07/31 05:50:30;;;;;;;5.22;4.18;;;18.30;99.90;;;;;;5024518;28;20036;-71
2022/07/31 05:52:56;;;;;;;5.47;4.47;;;18.40;99.90;;;;;;5017902;28;20036;-71
2022/07/31 05:55:22;;;;;;;8.80;5.07;;;18.50;99.90;;;;;;5042694;28;20043;-71
2022/07/31 05:57:48;;;;;;;6.55;4.10;;;18.40;99.90;;;;;;5023047;28;20455;-71
2022/07/31 06:00:15;;;;;;;5.43;3.80;;;18.50;99.90;;;;;;5018624;28;20037;-71
2022/07/31 06:02:41;;;;;;;5.95;3.83;;;18.50;99.90;;;;;;5017276;28;20051;-71
2022/07/31 06:05:08;;;;;;;7.70;4.50;;;18.50;99.90;;;;;;5032372;28;20033;-71
2022/07/31 06:07:33;;;;;;;7.13;4.00;;;18.50;99.90;;;;;;5022339;28;20041;-71
2022/07/31 06:10:01;;;;;;;6.13;3.92;;;18.60;99.90;;;;;;5009263;28;20531;-71
2022/07/31 06:12:26;;;;;;;7.30;3.90;;;18.60;99.90;;;;;;5034515;28;20040;-71
2022/07/31 06:14:52;;;;;;;4.32;3.83;;;18.60;99.90;;;;;;5024653;28;20090;-71
2022/07/31 06:17:18;;;;;;;7.13;4.15;;;18.70;99.90;;;;;;5039998;28;20037;-71
2022/07/31 06:19:44;;;;;;;10.57;4.22;;;18.70;99.90;;;;;;5042001;28;20076;-71
2022/07/31 06:22:09;;;;;;;6.35;3.70;;;18.70;99.90;;;;;;5039730;28;20131;-71
2022/07/31 06:24:36;;;;;;;4.18;3.50;;;18.80;99.90;;;;;;5037197;28;20072;-71
2022/07/31 06:27:02;;;;;;;6.78;4.10;;;18.80;99.90;;;;;;5004841;28;20042;-71
2022/07/31 06:29:28;;;;;;;9.52;4.22;;;18.90;99.90;;;;;;5024981;28;20028;-71
2022/07/31 06:31:54;;;;;;;5.07;4.07;;;18.90;99.90;;;;;;5025237;28;20682;-71
2022/07/31 06:34:21;;;;;;;5.18;3.88;;;19.00;99.90;;;;;;5034908;28;20127;-71
2022/07/31 06:36:46;;;;;;;6.05;4.05;;;19.00;99.90;;;;;;5019746;28;20064;-71
2022/07/31 06:39:12;;;;;;;5.15;3.80;;;19.00;99.90;;;;;;5038185;28;20040;-71
2022/07/31 06:41:46;;;;;;;6.22;3.85;;;19.00;99.90;;;;;;5022901;28;20167;-71
2022/07/31 06:44:21;;;;;;;5.65;4.30;;;19.00;99.90;;;;;;5038673;28;20048;-71
2022/07/31 06:46:48;;;;;;;6.55;4.32;;;19.10;99.90;;;;;;5037080;28;20098;-71
2022/07/31 06:49:14;;;;;;;5.07;3.63;;;19.10;99.90;;;;;;5025156;28;20127;-71
2022/07/31 06:51:40;;;;;;;8.48;3.95;;;19.20;99.90;;;;;;5023629;28;20137;-71
2022/07/31 06:54:08;;;;;;;8.57;3.63;;;19.20;99.90;;;;;;5020997;28;20048;-71
2022/07/31 06:56:35;;;;;;;6.20;3.70;;;19.20;99.90;;;;;;5038573;28;20051;-71
2022/07/31 06:59:02;;;;;;;8.13;3.88;;;19.30;99.90;;;;;;5057620;28;20036;-71
2022/07/31 07:01:28;;;;;;;4.68;4.00;;;19.30;99.90;;;;;;5041983;28;20038;-71
2022/07/31 07:03:54;;;;;;;4.68;3.92;;;19.30;99.90;;;;;;5039191;28;20045;-71
2022/07/31 07:06:20;;;;;;;4.78;3.60;;;19.40;99.90;;;;;;5021149;28;20069;-71
2022/07/31 07:08:46;;;;;;;5.07;4.00;;;19.40;99.90;;;;;;5035978;28;20034;-71
2022/07/31 07:11:13;;;;;;;5.07;3.55;;;19.50;99.90;;;;;;5022326;28;20481;-71
2022/07/31 07:13:39;;;;;;;6.00;4.05;;;19.50;99.90;;;;;;5008019;28;20036;-71
2022/07/31 07:16:05;;;;;;;7.88;4.03;;;19.50;99.90;;;;;;5022531;28;20038;-71
2022/07/31 07:18:31;;;;;;;6.20;4.28;;;19.60;99.90;;;;;;5058279;28;20033;-71
2022/07/31 07:20:57;;;;;;;6.00;3.90;;;19.60;99.90;;;;;;5044748;28;20047;-71
2022/07/31 07:23:23;;;;;;;4.32;3.78;;;19.70;99.90;;;;;;5031416;28;20052;-70
2022/07/31 07:25:49;;;;;;;5.13;3.50;;;19.70;99.90;;;;;;5039092;28;20036;-71
2022/07/31 07:28:15;;;;;;;9.10;4.10;;;19.80;99.90;;;;;;5057158;28;20046;-71
2022/07/31 07:30:41;;;;;;;6.10;4.13;;;19.80;99.90;;;;;;5032064;28;20044;-72
2022/07/31 07:33:07;;;;;;;5.90;4.32;;;19.80;99.90;;;;;;5023597;28;21855;-71
2022/07/31 07:35:32;;;;;;;5.35;3.72;;;19.90;99.90;;;;;;5042223;28;20120;-71
2022/07/31 07:37:58;;;;;;;8.23;4.38;;;19.90;99.90;;;;;;5037706;28;20043;-71
2022/07/31 07:40:25;;;;;;;6.75;4.30;;;19.90;99.90;;;;;;5033962;28;20045;-71
2022/07/31 07:42:51;;;;;;;5.13;4.18;;;19.90;99.90;;;;;;5037425;28;20037;-71
2022/07/31 07:45:18;;;;;;;9.05;4.10;;;20.00;99.90;;;;;;5021630;28;20049;-71
2022/07/31 07:47:45;;;;;;;5.95;4.05;;;20.00;99.90;;;;;;5013885;28;20213;-71
2022/07/31 07:50:11;;;;;;;6.28;4.40;;;20.10;99.90;;;;;;5038437;28;20139;-71
2022/07/31 07:52:37;;;;;;;6.63;4.70;;;20.10;99.90;;;;;;5035537;28;20055;-71
2022/07/31 07:55:05;;;;;;;6.40;4.75;;;20.00;99.90;;;;;;5033071;28;20129;-72
2022/07/31 07:57:31;;;;;;;7.13;4.72;;;20.00;99.90;;;;;;5032841;28;20514;-72
2022/07/31 08:00:06;;;;;;;6.18;4.47;;;20.00;99.90;;;;;;5033561;28;20045;-71
2022/07/31 08:02:32;;;;;;;6.53;4.38;;;20.10;99.90;;;;;;5043824;28;20052;-71
2022/07/31 08:04:59;;;;;;;7.43;4.85;;;20.10;99.90;;;;;;5055438;28;20481;-71
2022/07/31 08:07:33;;;;;;;8.20;4.85;;;20.10;99.90;;;;;;5053843;28;20341;-72
2022/07/31 08:10:00;;;;;;;6.55;5.57;;;20.20;99.90;;;;;;5033369;28;20562;-71
2022/07/31 08:12:27;;;;;;;10.73;5.35;;;20.20;99.90;;;;;;5022147;28;20040;-72
2022/07/31 08:14:53;;;;;;;7.35;5.22;;;20.30;99.90;;;;;;5037143;28;20079;-72
2022/07/31 08:17:19;;;;;;;7.32;5.22;;;20.30;99.90;;;;;;5031715;28;20111;-72
2022/07/31 08:19:45;;;;;;;8.10;5.80;;;20.40;99.90;;;;;;5027155;28;20409;-71
2022/07/31 08:22:12;;;;;;;12.43;5.97;;;20.50;99.90;;;;;;5048557;28;20037;-72
2022/07/31 08:24:38;;;;;;;8.23;5.65;;;20.60;99.90;;;;;;5035264;28;20452;-72
2022/07/31 08:29:48;;;;;;;9.30;6.55;;;20.70;99.90;;;;;;5030274;28;20045;-72
2022/07/31 08:32:14;;;;;;;7.65;5.82;;;20.70;99.90;;;;;;5031676;28;20049;-72
2022/07/31 08:34:39;;;;;;;10.00;7.47;;;20.80;99.90;;;;;;5014223;28;20106;-72
2022/07/31 08:37:06;;;;;;;7.95;6.68;;;20.70;99.90;;;;;;5016316;28;20031;-72
2022/07/31 08:39:33;;;;;;;7.90;6.70;;;20.70;99.90;;;;;;5034238;28;20406;-72
2022/07/31 08:42:02;;;;;;;11.70;6.72;;;20.70;99.90;;;;;;5020982;28;21017;-72
2022/07/31 08:44:28;;;;;;;9.07;6.70;;;20.70;99.90;;;;;;5008523;28;20190;-72
2022/07/31 08:46:55;;;;;;;9.27;6.65;;;20.70;99.90;;;;;;5031326;28;20477;-72
2022/07/31 08:49:25;;;;;;;11.27;7.82;;;20.70;99.90;;;;;;5001540;28;20052;-72
2022/07/31 08:51:51;;;;;;;8.60;7.15;;;20.70;99.90;;;;;;5034082;28;20033;-72
2022/07/31 08:54:18;;;;;;;9.68;8.00;;;20.70;99.90;;;;;;5002060;28;20663;-72
2022/07/31 08:56:46;;;;;;;9.70;7.55;;;20.60;99.90;;;;;;5039128;28;20049;-73
2022/07/31 08:59:16;;;;;;;8.23;7.00;;;20.70;99.90;;;;;;5042837;28;20088;-73
2022/07/31 09:01:42;;;;;;;7.85;6.72;;;20.70;99.90;;;;;;5039974;28;20036;-72
2022/07/31 09:04:08;;;;;;;8.15;6.20;;;20.70;99.90;;;;;;5017954;28;20147;-73
2022/07/31 09:06:34;;;;;;;11.38;6.22;;;20.70;99.90;;;;;;5051428;28;20099;-72
2022/07/31 09:09:00;;;;;;;8.13;7.10;;;20.80;99.90;;;;;;5032505;28;20040;-72
2022/07/31 09:11:26;;;;;;;7.10;5.38;;;20.80;99.90;;;;;;5053446;28;20037;-72
2022/07/31 09:13:59;;;;;;;8.27;6.57;;;20.80;99.90;;;;;;5017192;28;20037;-72
2022/07/31 09:16:25;;;;;;;11.15;6.82;;;20.80;99.90;;;;;;5039425;28;20033;-72
2022/07/31 09:19:03;;;;;;;9.68;6.80;;;20.80;99.90;;;;;;5001259;28;20353;-72
2022/07/31 09:21:39;;;;;;;9.15;5.97;;;20.70;99.90;;;;;;5017148;28;20029;-73
2022/07/31 09:24:07;;;;;;;12.07;6.60;;;20.70;99.90;;;;;;5034321;28;20064;-72
2022/07/31 09:26:33;;;;;;;7.25;6.00;;;20.60;99.90;;;;;;5021606;28;20040;-72
2022/07/31 09:29:00;;;;;;;6.90;5.72;;;20.60;99.90;;;;;;5017061;28;20102;-72
2022/07/31 09:31:35;;;;;;;8.82;6.50;;;20.60;99.90;;;;;;5019089;28;20113;-72
2022/07/31 09:34:01;;;;;;;12.10;6.70;;;20.60;99.90;;;;;;5034440;28;20116;-72
2022/07/31 09:36:27;;;;;;;6.88;6.18;;;20.70;99.90;;;;;;5034610;28;20545;-72
2022/07/31 09:38:58;;;;;;;10.25;7.45;;;20.60;99.90;;;;;;5051160;28;20052;-73
2022/07/31 09:41:24;;;;;;;11.80;7.50;;;20.60;99.90;;;;;;5033419;28;20059;-72
2022/07/31 09:44:04;;;;;;;10.43;7.35;;;20.50;99.90;;;;;;5045277;28;20037;-72
2022/07/31 09:46:47;;;;;;;11.93;7.85;;;20.50;99.90;;;;;;5017530;28;20480;-72
2022/07/31 09:49:13;;;;;;;8.70;7.43;;;20.40;99.90;;;;;;5017072;28;20072;-73
2022/07/31 09:51:45;;;;;;;8.20;7.05;;;20.40;99.90;;;;;;5016466;28;20033;-72
2022/07/31 09:54:21;;;;;;;;;;;20.30;99.90;;;;;;5051453;28;20052;-72
2022/07/31 09:56:48;;;;;;;11.85;7.70;;;20.30;99.90;;;;;;5035598;28;19964;-72
2022/07/31 09:59:14;;;;;;;9.38;7.28;;;20.20;99.90;;;;;;5053316;28;20051;-73
2022/07/31 10:01:41;;;;;;;15.13;8.75;;;20.20;99.90;;;;;;5018819;28;20115;-73
2022/07/31 10:04:09;;;;;;;11.07;8.75;;;20.20;99.90;;;;;;5032350;28;20116;-73
2022/07/31 10:06:36;;;;;;;11.30;7.65;;;20.10;99.90;;;;;;5033297;28;20560;-73
2022/07/31 10:09:03;;;;;;;10.32;8.20;;;20.20;99.90;;;;;;4999563;28;20052;-72
2022/07/31 10:11:30;;;;;;;10.43;8.18;;;20.20;99.90;;;;;;5015980;28;20029;-73
2022/07/31 10:14:01;;;;;;;10.35;8.32;;;20.20;99.90;;;;;;5059089;28;20040;-73
2022/07/31 10:16:30;;;;;;;13.80;8.32;;;20.30;99.90;;;;;;5017078;28;20044;-73
2022/07/31 10:18:59;;;;;;;10.85;8.50;;;20.40;99.90;;;;;;5050278;28;20564;-73
2022/07/31 10:21:34;;;;;;;12.52;9.25;;;20.40;99.90;;;;;;5032628;28;20094;-72
2022/07/31 10:24:03;;;;;;;12.30;8.77;;;20.30;99.90;;;;;;5050572;28;20040;-72
2022/07/31 10:26:29;;;;;;;11.50;9.75;;;20.30;99.90;;;;;;5032873;28;20395;-72
2022/07/31 10:28:57;;;;;;;11.68;9.45;;;20.30;99.90;;;;;;5022475;28;20051;-72
2022/07/31 10:31:22;;;;;;;12.32;9.32;;;20.20;99.90;;;;;;5016577;28;20102;-72
2022/07/31 10:33:48;;;;;;;13.07;9.55;;;20.20;99.90;;;;;;5032167;28;20490;-72
2022/07/31 10:36:20;;;;;;;13.25;9.70;;;20.20;99.90;;;;;;5019534;28;20170;-71
2022/07/31 10:38:48;;;;;;;11.82;9.95;;;20.30;99.90;;;;;;5033325;28;20041;-71
2022/07/31 10:41:28;;;;;;;11.65;9.27;;;20.30;99.90;;;;;;5031062;28;20039;-71
2022/07/31 10:43:59;;;;;;;11.40;10.20;;;20.50;99.90;;;;;;5032722;28;20045;-71
2022/07/31 10:46:30;;;;;;;10.45;9.18;;;20.70;99.90;;;;;;5025186;28;20036;-72
2022/07/31 10:48:57;;;;;;;13.40;10.00;;;20.90;99.90;;;;;;5032785;28;20044;-71
2022/07/31 10:51:23;;;;;;;12.57;9.23;;;21.00;99.90;;;;;;5031921;28;20055;-72
2022/07/31 10:54:00;;;;;;;11.48;9.52;;;21.10;99.90;;;;;;5016382;28;20040;-72
2022/07/31 10:56:27;;;;;;;13.52;9.93;;;21.10;99.90;;;;;;5013776;28;20519;-72
2022/07/31 10:58:58;;;;;;;12.68;9.45;;;21.20;99.90;;;;;;5012541;28;20120;-72
2022/07/31 11:01:25;;;;;;;13.88;9.75;;;21.30;99.90;;;;;;5019747;28;20059;-73
2022/07/31 11:04:00;;;;;;;11.35;9.48;;;21.30;99.90;;;;;;5015324;28;20041;-72
2022/07/31 11:06:40;;;;;;;12.00;9.82;;;21.30;99.90;;;;;;5026450;28;20048;-71
2022/07/31 11:09:07;;;;;;;11.88;10.25;;;21.30;99.90;;;;;;5022941;28;20045;-72
2022/07/31 11:11:36;;;;;;;13.07;9.43;;;21.30;99.90;;;;;;5030890;28;20098;-73
2022/07/31 11:14:02;;;;;;;12.20;10.90;;;21.30;99.90;;;;;;5024566;28;20033;-72
2022/07/31 11:16:28;;;;;;;13.43;11.35;;;21.30;99.90;;;;;;5023214;28;20536;-73
2022/07/31 11:19:05;;;;;;;12.35;10.32;;;21.20;99.90;;;;;;5018127;28;20142;-73
2022/07/31 11:21:35;;;;;;;13.18;10.77;;;21.20;99.90;;;;;;5024668;28;20056;-73
2022/07/31 11:24:12;;;;;;;17.63;12.18;;;21.30;99.90;;;;;;5038360;28;20464;-73
2022/07/31 11:26:41;;;;;;;15.45;11.73;;;21.20;99.90;;;;;;5035543;28;20040;-73
2022/07/31 11:29:08;;;;;;;17.92;13.10;;;21.30;99.90;;;;;;5054598;28;20080;-73
2022/07/31 11:31:34;;;;;;;17.85;13.68;;;21.30;99.90;;;;;;5010258;28;20041;-72
2022/07/31 11:34:02;;;;;;;18.27;14.82;;;21.30;99.90;;;;;;5039537;28;20461;-73
2022/07/31 11:36:28;;;;;;;17.08;14.25;;;21.20;99.90;;;;;;5044061;28;20039;-73
2022/07/31 11:38:55;;;;;;;17.13;13.68;;;21.20;99.90;;;;;;5023477;28;20041;-73
2022/07/31 11:41:27;;;;;;;16.98;14.70;;;21.20;99.90;;;;;;5007367;28;20079;-73
2022/07/31 11:43:54;;;;;;;18.98;14.50;;;21.10;99.90;;;;;;5010539;28;20362;-73
2022/07/31 11:46:32;;;;;;;17.35;13.90;;;21.10;99.90;;;;;;5003270;28;20080;-72
2022/07/31 11:48:59;;;;;;;20.65;14.27;;;21.00;99.90;;;;;;5000350;28;20052;-73
2022/07/31 11:51:25;;;;;;;20.38;14.07;;;21.00;99.90;;;;;;4997400;28;20514;-73
2022/07/31 11:53:53;;;;;;;18.92;14.45;;;20.90;99.90;;;;;;5034072;28;20060;-71
2022/07/31 11:56:19;;;;;;;19.48;15.00;;;20.90;99.90;;;;;;5016988;28;20125;-72
2022/07/31 11:58:47;;;;;;;18.63;16.30;;;20.80;99.90;;;;;;5000578;28;20037;-71
2022/07/31 12:01:13;;;;;;;18.70;15.15;;;20.70;99.90;;;;;;5018216;28;20060;-72
2022/07/31 12:03:39;;;;;;;19.50;15.55;;;20.60;99.90;;;;;;4996450;28;20040;-72
2022/07/31 12:06:07;;;;;;;18.50;14.90;;;20.40;99.90;;;;;;5004758;28;20037;-72
2022/07/31 12:08:36;;;;;;;21.08;14.85;;;20.30;99.90;;;;;;5016185;28;20076;-71
2022/07/31 12:11:04;;;;;;;18.65;14.23;;;20.10;99.90;;;;;;5016910;28;20048;-71
2022/07/31 12:13:31;;;;;;;20.92;16.15;;;20.00;99.90;;;;;;5040602;28;20044;-71
2022/07/31 12:16:01;;;;;;;20.30;15.95;;;19.80;99.90;;;;;;5042608;28;20039;-72
2022/07/31 12:18:28;;;;;;;23.52;17.60;;;19.60;99.90;;;;;;5023741;28;20409;-72
2022/07/31 12:21:00;;;;;;;25.02;18.95;;;19.50;99.90;;;;;;5029166;28;20410;-72
2022/07/31 12:23:47;;;;;;;25.42;20.23;;;19.40;99.90;;;;;;5004856;28;20033;-72
2022/07/31 12:26:22;;;;;;;28.00;21.30;;;19.30;99.90;;;;;;5023349;28;20037;-72
2022/07/31 12:29:00;;;;;;;31.50;24.42;;;19.20;99.90;;;;;;5041182;28;20047;-72
2022/07/31 12:31:27;;;;;;;31.58;23.05;;;19.10;99.90;;;;;;5024505;28;20164;-72
2022/07/31 12:33:53;;;;;;;32.85;23.70;;;19.00;99.90;;;;;;5022662;28;20040;-72
2022/07/31 12:36:20;;;;;;;33.53;25.20;;;19.00;99.90;;;;;;5025936;28;20398;-72
2022/07/31 12:38:56;;;;;;;30.63;23.52;;;18.90;99.90;;;;;;5019329;28;20112;-71
2022/07/31 12:41:22;;;;;;;30.23;22.35;;;18.90;99.90;;;;;;5021285;28;20037;-71
2022/07/31 12:43:48;;;;;;;36.90;25.67;;;18.90;99.90;;;;;;5003625;28;20044;-71
2022/07/31 12:46:14;;;;;;;34.38;26.50;;;18.90;99.90;;;;;;5021835;28;20053;-71
2022/07/31 12:48:39;;;;;;;33.67;25.13;;;18.90;99.90;;;;;;5005476;28;20042;-71